Latest Coastal Weather Observations for Flinders Reef

IDQ60701

Issued at 9:21 am EST Monday 25 March 2019 (issued every 10 minutes, with the page automatically refreshed every 10 minutes)

About coastal observations | Map of coastal stations | Coastal observations for QLD | Marine services | Other Formats
Station Details ID: 200783 Name: FLINDERS REEF Lat: -17.72 Lon: 148.45 Height: 2.6 m
Data from the previous 72 hours. | See also: Recent months at Flinders Reef
Date/Time
EST
Wind Sea
Height
m
Swell Vis
km
Cloud Weather Temp
°C
Press
hPa
Rain since
9am
mm
Dir  Spd
kts
Gust
kts
Height
m
Period
s
Dir
25/09:00am E 9 10 - - - - - - - 28.5 1013.5 -
25/08:30am E 10 11 - - - - - - - 28.6 1013.5 -
25/08:24am E 10 - - - - - - - - 28.4 1013.3 -
25/08:00am E 8 9 - - - - - - - 28.6 1013.4 -
25/07:30am E 9 11 - - - - - - - 28.4 1013.0 -
25/07:24am E 9 - - - - - - - - 28.3 1012.8 -
25/07:00am E 7 9 - - - - - - - 28.1 1012.7 -
25/06:30am E 7 8 - - - - - - - 27.2 1012.3 -
25/06:24am E 8 - - - - - - - - 26.9 1012.1 -
25/06:00am NE 8 10 - - - - - - - 27.1 1012.0 -
25/05:30am ENE 10 11 - - - - - - - 27.8 1011.6 -
25/05:24am ENE 9 - - - - - - - - 27.7 1011.4 -
25/05:00am ENE 10 11 - - - - - - - 27.8 1011.4 -
25/04:30am E 9 11 - - - - - - - 27.5 1011.2 -
25/04:24am E 9 - - - - - - - - 27.7 1011.1 -
25/04:00am E 10 11 - - - - - - - 27.8 1010.9 -
25/03:30am E 11 13 - - - - - - - 27.8 1010.8 -
25/03:24am E 10 - - - - - - - - 27.8 1010.7 -
25/03:00am E 11 12 - - - - - - - 27.7 1010.7 -
25/02:30am E 11 13 - - - - - - - 27.7 1010.8 -
25/02:24am E 10 - - - - - - - - 27.8 1010.7 -
25/02:00am E 10 12 - - - - - - - 27.9 1010.9 -
25/01:30am E 10 13 - - - - - - - 27.8 1011.0 -
25/01:24am ENE 10 - - - - - - - - 27.8 1011.0 -
25/01:00am ENE 10 11 - - - - - - - 27.9 1011.4 -
25/12:30am E 10 11 - - - - - - - 27.9 1011.6 -
25/12:24am E 10 - - - - - - - - 27.8 1011.5 -
25/12:00am E 10 11 - - - - - - - 27.8 1012.0 -
 
Date/Time
EST
Wind Sea
Height
m
Swell Vis
km
Cloud Weather Temp
°C
Press
hPa
Rain since
9am
mm
Dir  Spd
kts
Gust
kts
Height
m
Period
s
Dir
24/11:30pm E 10 12 - - - - - - - 27.9 1012.4 -
24/11:24pm E 10 - - - - - - - - 27.9 1012.4 -
24/11:00pm ENE 11 12 - - - - - - - 27.9 1012.7 -
24/10:30pm ENE 11 14 - - - - - - - 28.0 1012.9 -
24/10:24pm ENE 11 - - - - - - - - 28.0 1013.0 -
24/10:00pm ENE 11 13 - - - - - - - 27.8 1013.2 -
24/09:30pm E 10 13 - - - - - - - 27.6 1013.2 -
24/09:24pm E 11 - - - - - - - - 27.4 1013.1 -
24/09:00pm E 12 13 - - - - - - - 28.3 1013.0 -
24/08:30pm E 13 15 - - - - - - - 28.2 1012.6 -
24/08:24pm E 13 - - - - - - - - 28.2 1012.4 -
24/08:00pm E 13 15 - - - - - - - 28.3 1012.4 -
24/07:30pm E 11 12 - - - - - - - 28.1 1012.0 -
24/07:24pm E 10 - - - - - - - - 28.0 1011.9 -
24/07:00pm E 11 13 - - - - - - - 27.9 1011.9 -
24/06:30pm E 10 12 - - - - - - - 27.8 1011.8 -
24/06:24pm E 11 - - - - - - - - 27.8 1011.7 -
24/06:00pm E 12 13 - - - - - - - 27.8 1011.6 -
24/05:30pm E 11 13 - - - - - - - 28.1 1011.4 -
24/05:24pm E 12 - - - - - - - - 28.0 1011.4 -
24/05:00pm E 13 15 - - - - - - - 28.0 1011.2 -
24/04:30pm E 13 15 - - - - - - - 28.7 1011.0 -
24/04:24pm E 12 - - - - - - - - 28.8 1010.9 -
24/04:00pm E 14 17 - - - - - - - 28.1 1011.0 -
24/03:30pm E 17 19 - - - - - - - 28.1 1011.0 -
24/03:24pm E 16 - - - - - - - - 28.1 1010.8 -
24/03:00pm E 16 18 - - - - - - - 27.8 1011.0 -
24/02:30pm E 17 20 - - - - - - - 27.9 1011.3 -
24/02:24pm E 18 - - - - - - - - 27.8 1011.2 -
24/02:00pm E 17 20 - - - - - - - 27.6 1011.4 -
24/01:30pm E 17 19 - - - - - - - 28.2 1011.7 -
24/01:24pm E 17 - - - - - - - - 28.0 1011.6 -
24/01:00pm ESE 15 17 - - - - - - - 27.9 1012.2 -
24/12:30pm ESE 14 17 - - - - - - - 28.5 1012.5 -
24/12:24pm ESE 14 - - - - - - - - 28.5 1012.4 -
24/12:00pm ESE 15 17 - - - - - - - 28.4 1012.8 -
24/11:30am ESE 15 17 - - - - - - - 28.4 1013.1 -
24/11:24am E 15 - - - - - - - - 28.4 1013.0 -
24/11:00am ESE 13 15 - - - - - - - 28.4 1013.3 -
24/10:30am E 13 14 - - - - - - - 28.7 1013.6 -
24/10:24am E 12 - - - - - - - - 28.6 1013.5 -
24/10:00am E 12 14 - - - - - - - 28.4 1013.6 -
24/09:30am E 12 14 - - - - - - - 28.4 1013.7 -
24/09:24am E 13 - - - - - - - - 28.4 1013.5 -
24/09:00am E 13 15 - - - - - - - 28.2 1013.3 -
24/08:30am E 12 14 - - - - - - - 28.2 1013.1 -
24/08:24am E 13 - - - - - - - - 28.2 1013.0 -
24/08:00am E 14 16 - - - - - - - 28.1 1012.6 -
24/07:30am E 13 14 - - - - - - - 28.0 1012.0 -
24/07:24am E 13 - - - - - - - - 28.0 1011.9 -
24/07:00am E 13 15 - - - - - - - 28.0 1011.6 -
24/06:30am ESE 12 14 - - - - - - - 27.9 1011.3 -
24/06:24am ESE 13 - - - - - - - - 27.8 1011.0 -
24/06:00am E 14 15 - - - - - - - 27.8 1010.8 -
24/05:30am E 15 17 - - - - - - - 27.9 1010.7 -
24/05:24am E 15 - - - - - - - - 27.9 1010.5 -
24/05:00am E 15 17 - - - - - - - 27.8 1010.4 -
24/04:30am E 14 16 - - - - - - - 27.8 1010.1 -
24/04:24am E 14 - - - - - - - - 27.9 1010.0 -
24/04:00am E 14 16 - - - - - - - 27.9 1009.8 -
24/03:30am E 15 17 - - - - - - - 27.8 1009.8 -
24/03:24am E 14 - - - - - - - - 27.9 1009.7 -
24/03:00am E 14 16 - - - - - - - 27.8 1010.2 -
24/02:30am E 14 16 - - - - - - - 27.9 1010.6 -
24/02:24am E 14 - - - - - - - - 27.9 1010.5 -
24/02:00am E 14 16 - - - - - - - 27.9 1011.0 -
24/01:30am E 12 14 - - - - - - - 27.6 1011.4 -
24/01:24am E 11 - - - - - - - - 27.4 1011.4 -
24/01:00am E 11 13 - - - - - - - 26.8 1012.0 -
24/12:30am E 14 17 - - - - - - - 27.2 1012.4 -
24/12:24am E 14 - - - - - - - - 27.5 1012.3 -
24/12:00am ENE 13 16 - - - - - - - 27.6 1012.5 -
 
Date/Time
EST
Wind Sea
Height
m
Swell Vis
km
Cloud Weather Temp
°C
Press
hPa
Rain since
9am
mm
Dir  Spd
kts
Gust
kts
Height
m
Period
s
Dir
23/11:30pm ENE 17 20 - - - - - - - 26.7 1012.5 -
23/11:24pm E 16 - - - - - - - - 27.0 1012.5 -
23/11:00pm E 17 19 - - - - - - - 28.0 1013.0 -
23/10:30pm E 14 16 - - - - - - - 28.0 1013.0 -
23/10:24pm E 14 - - - - - - - - 28.0 1013.0 -
23/10:00pm E 13 15 - - - - - - - 27.9 1013.3 -
23/09:30pm ESE 16 19 - - - - - - - 28.0 1013.2 -
23/09:24pm E 15 - - - - - - - - 28.2 1013.1 -
23/09:00pm E 15 18 - - - - - - - 28.1 1013.0 -
23/08:30pm E 16 19 - - - - - - - 28.3 1012.6 -
23/08:24pm E 15 - - - - - - - - 28.3 1012.5 -
23/08:00pm ESE 15 17 - - - - - - - 28.4 1012.6 -
23/07:30pm E 14 16 - - - - - - - 28.3 1012.3 -
23/07:24pm E 14 - - - - - - - - 28.3 1012.1 -
23/07:00pm E 13 15 - - - - - - - 28.4 1012.0 -
23/06:30pm ESE 14 16 - - - - - - - 28.4 1011.7 -
23/06:24pm ESE 14 - - - - - - - - 28.3 1011.6 -
23/06:00pm ESE 14 16 - - - - - - - 28.3 1011.5 -
23/05:30pm ESE 14 15 - - - - - - - 28.2 1011.2 -
23/05:24pm ESE 14 - - - - - - - - 28.3 1011.1 -
23/05:00pm ESE 13 16 - - - - - - - 28.1 1011.0 -
23/04:30pm E 10 11 - - - - - - - 28.1 1010.8 -
23/04:24pm E 10 - - - - - - - - 28.3 1010.7 -
23/04:00pm E 10 11 - - - - - - - 28.2 1010.7 -
23/03:30pm E 12 14 - - - - - - - 27.7 1010.7 -
23/03:24pm E 13 - - - - - - - - 27.6 1010.7 -
23/03:00pm E 11 13 - - - - - - - 28.1 1010.9 -
23/02:30pm E 13 15 - - - - - - - 28.0 1011.1 -
23/02:24pm E 14 - - - - - - - - 28.2 1011.0 -
23/02:00pm E 13 17 - - - - - - - 28.0 1011.0 -
23/01:30pm E 13 14 - - - - - - - 28.6 1011.3 -
23/01:24pm E 12 - - - - - - - - 28.4 1011.2 -
23/01:00pm E 12 13 - - - - - - - 28.8 1011.6 -
23/12:30pm E 13 15 - - - - - - - 28.5 1011.9 -
23/12:24pm E 12 - - - - - - - - 28.5 1011.8 -
23/12:00pm E 12 14 - - - - - - - 29.0 1012.1 -
23/11:30am E 12 14 - - - - - - - 29.2 1012.3 -
23/11:24am E 13 - - - - - - - - 29.2 1012.4 -
23/11:00am E 13 15 - - - - - - - 29.0 1012.7 -
23/10:30am ENE 15 16 - - - - - - - 29.0 1012.3 -
23/10:24am E 15 - - - - - - - - 28.9 1012.1 -
23/10:00am E 15 17 - - - - - - - 29.0 1012.4 -
23/09:30am E 16 18 - - - - - - - 28.6 1012.2 -
23/09:24am E 15 - - - - - - - - 28.4 1012.0 -
23/09:00am E 14 16 - - - - - - - 28.7 1012.3 -
23/08:30am E 15 17 - - - - - - - 28.5 1012.1 -
23/08:24am E 14 - - - - - - - - 28.5 1012.0 -
23/08:00am E 14 16 - - - - - - - 28.7 1011.7 -
23/07:30am E 15 17 - - - - - - - 28.2 1011.3 -
23/07:24am E 15 - - - - - - - - 28.2 1011.0 -
23/07:00am E 14 16 - - - - - - - 27.9 1011.2 -
23/06:30am E 15 17 - - - - - - - 28.0 1010.8 -
23/06:24am E 15 - - - - - - - - 28.0 1010.8 -
23/06:00am E 15 18 - - - - - - - 27.8 1010.8 -
23/05:30am E 14 17 - - - - - - - 27.8 1010.4 -
23/05:24am E 14 - - - - - - - - 28.0 1010.3 -
23/05:00am E 15 17 - - - - - - - 27.7 1010.2 -
23/04:30am E 15 17 - - - - - - - 27.7 1010.3 -
23/04:24am E 15 - - - - - - - - 27.9 1010.3 -
23/04:00am E 16 19 - - - - - - - 28.0 1010.1 -
23/03:30am E 16 19 - - - - - - - 27.9 1009.9 -
23/03:24am E 16 - - - - - - - - 27.9 1009.8 -
23/03:00am E 16 19 - - - - - - - 28.0 1010.1 -
23/02:30am E 17 19 - - - - - - - 28.2 1010.3 -
23/02:24am E 16 - - - - - - - - 28.1 1010.3 -
23/02:00am E 15 17 - - - - - - - 28.1 1010.7 -
23/01:30am E 15 17 - - - - - - - 28.2 1011.0 -
23/01:24am E 16 - - - - - - - - 28.1 1011.0 -
23/01:00am E 15 18 - - - - - - - 28.0 1011.3 -
23/12:30am E 16 18 - - - - - - - 28.2 1011.6 -
23/12:24am E 16 - - - - - - - - 28.2 1011.5 -
23/12:00am E 15 17 - - - - - - - 28.2 1011.9 -
 
Date/Time
EST
Wind Sea
Height
m
Swell Vis
km
Cloud Weather Temp
°C
Press
hPa
Rain since
9am
mm
Dir  Spd
kts
Gust
kts
Height
m
Period
s
Dir
22/11:30pm E 17 20 - - - - - - - 28.1 1012.1 -
22/11:24pm ESE 18 - - - - - - - - 28.1 1011.9 -
22/11:00pm ESE 18 21 - - - - - - - 28.2 1012.1 -
22/10:30pm ESE 19 22 - - - - - - - 28.1 1012.0 -
22/10:24pm ESE 18 - - - - - - - - 28.1 1011.9 -
22/10:00pm ESE 19 21 - - - - - - - 28.2 1012.1 -
22/09:30pm ESE 17 19 - - - - - - - 28.1 1012.1 -
22/09:24pm ESE 17 - - - - - - - - 28.2 1012.0 -
22/09:00pm ESE 18 21 - - - - - - - 28.1 1012.0 -
22/08:30pm SE 19 22 - - - - - - - 28.3 1011.8 -
22/08:24pm SE 18 - - - - - - - - 28.1 1011.7 -
22/08:00pm SE 18 21 - - - - - - - 28.3 1011.5 -
22/07:30pm SE 16 19 - - - - - - - 28.2 1011.4 -
22/07:24pm SE 16 - - - - - - - - 28.2 1011.2 -
22/07:00pm SE 17 19 - - - - - - - 28.2 1011.1 -
22/06:30pm SE 18 21 - - - - - - - 28.1 1010.7 -
22/06:24pm SE 18 - - - - - - - - 28.1 1010.5 -
22/06:00pm SE 18 21 - - - - - - - 28.0 1010.4 -
22/05:30pm SE 17 20 - - - - - - - 28.0 1010.2 -
22/05:24pm SE 18 - - - - - - - - 27.9 1010.0 -
22/05:00pm SE 17 20 - - - - - - - 27.9 1010.1 -
22/04:30pm SE 16 19 - - - - - - - 28.0 1010.2 -
22/04:24pm SE 16 - - - - - - - - 27.9 1010.1 -
22/04:00pm SE 16 18 - - - - - - - 28.0 1010.1 -
22/03:30pm ESE 15 17 - - - - - - - 28.0 1010.3 -
22/03:24pm ESE 15 - - - - - - - - 28.1 1010.3 -
22/03:00pm ESE 15 17 - - - - - - - 28.2 1010.3 -
22/02:30pm E 16 18 - - - - - - - 28.4 1010.2 -
22/02:24pm E 16 - - - - - - - - 28.4 1010.2 -
22/02:00pm E 16 19 - - - - - - - 28.4 1010.4 -
22/01:30pm E 15 17 - - - - - - - 28.2 1010.7 -
22/01:24pm E 15 - - - - - - - - 28.2 1010.6 -
22/01:00pm E 15 17 - - - - - - - 28.3 1011.0 -
22/12:30pm E 15 16 - - - - - - - 28.4 1011.5 -
22/12:24pm E 14 - - - - - - - - 28.6 1011.5 -
22/12:00pm E 15 17 - - - - - - - 28.5 1011.6 -
22/11:30am E 15 17 - - - - - - - 28.4 1011.8 -
22/11:24am E 15 - - - - - - - - 28.3 1011.8 -
22/11:00am E 16 18 - - - - - - - 28.3 1011.8 -
22/10:30am E 15 18 - - - - - - - 28.3 1011.6 -
22/10:24am E 15 - - - - - - - - 28.3 1011.6 -
22/10:00am E 15 17 - - - - - - - 28.2 1011.8 -
22/09:30am E 18 21 - - - - - - - 28.1 1011.8 -
22/09:24am E 19 - - - - - - - - 28.0 1011.7 -

Other formats

Comma delimited format used in spreadsheet applications
http://www.bom.gov.au/fwo/IDQ60701/IDQ60701.94290.axf

JavaScript Object Notation format (JSON) in row-major order
http://www.bom.gov.au/fwo/IDQ60701/IDQ60701.94290.json

Data quality

Most of these data are generated automatically and are frequently updated. Quality checks on data are not normally performed. It is possible for incorrect values to appear. Refer to information at About Latest Weather Observations and please check the disclaimer before using these data.